createdAt,value
2022-10-06T06:42:51.567Z,9.40
2022-10-06T06:56:26.747Z,10.10
2022-10-06T07:09:05.882Z,10.70
2022-10-06T07:14:01.878Z,10.90
2022-10-06T07:26:08.475Z,11.50
2022-10-06T07:31:02.787Z,11.80
2022-10-06T07:35:58.098Z,12.00
2022-10-06T07:41:17.806Z,12.30
2022-10-06T07:46:14.293Z,12.50
2022-10-06T07:51:28.728Z,12.80
2022-10-06T07:56:24.532Z,13.20
2022-10-06T08:01:25.760Z,13.50
2022-10-06T08:06:20.072Z,13.70
2022-10-06T08:11:15.259Z,13.90
2022-10-06T08:16:10.722Z,14.00
2022-10-06T08:21:14.003Z,14.20
2022-10-06T08:26:07.714Z,14.50
2022-10-06T08:31:05.983Z,14.70
2022-10-06T08:36:05.056Z,15.00
2022-10-06T08:41:00.646Z,15.20
2022-10-06T08:46:00.415Z,15.40
2022-10-06T08:51:06.409Z,15.60
2022-10-06T08:56:09.057Z,15.80
2022-10-06T09:01:11.008Z,16.00
2022-10-06T09:06:09.730Z,16.30
2022-10-06T09:11:21.680Z,16.60
2022-10-06T09:16:19.582Z,17.00
2022-10-06T09:21:18.171Z,17.30
2022-10-06T09:26:15.991Z,17.60
2022-10-06T09:31:22.996Z,18.00
2022-10-06T09:36:16.581Z,18.20
2022-10-06T09:41:13.462Z,18.20
2022-10-06T09:46:22.948Z,18.30
2022-10-06T09:51:18.278Z,18.50
2022-10-06T09:56:19.090Z,18.60
2022-10-06T10:01:14.505Z,18.70
2022-10-06T10:06:10.059Z,18.80
2022-10-06T10:11:36.482Z,18.90
2022-10-06T10:16:35.031Z,19.10
2022-10-06T10:21:34.627Z,19.00
2022-10-06T10:26:45.005Z,19.30
2022-10-06T10:32:03.019Z,19.50
2022-10-06T10:37:03.690Z,19.50
2022-10-06T10:42:03.194Z,19.50
2022-10-06T10:47:02.319Z,19.60
2022-10-06T10:52:05.122Z,19.80
2022-10-06T10:57:00.892Z,19.90
2022-10-06T11:01:58.158Z,20.40
2022-10-06T11:12:34.602Z,21.00
2022-10-06T11:17:44.644Z,21.70
2022-10-06T11:22:44.125Z,22.00
2022-10-06T11:27:53.118Z,22.70
2022-10-06T11:33:02.137Z,23.20
2022-10-06T11:38:01.475Z,23.50
2022-10-06T11:43:01.640Z,23.90
2022-10-06T11:48:13.582Z,24.70
2022-10-06T11:53:16.460Z,25.30
2022-10-06T11:58:40.813Z,25.30
2022-10-06T12:04:05.678Z,25.50
2022-10-06T12:09:00.290Z,25.80
2022-10-06T12:19:21.560Z,27.00
2022-10-06T12:24:34.451Z,27.10
2022-10-06T12:29:46.476Z,27.00
2022-10-06T12:35:04.402Z,27.10
2022-10-06T12:40:31.367Z,27.40
2022-10-06T12:45:26.762Z,27.80
2022-10-06T12:50:26.867Z,28.00
2022-10-06T12:55:39.580Z,28.20
2022-10-06T13:00:38.566Z,28.10
2022-10-06T13:05:32.248Z,27.70
2022-10-06T13:10:26.162Z,27.50
2022-10-06T13:15:23.925Z,28.60
2022-10-06T13:20:37.674Z,29.90
2022-10-06T13:25:37.363Z,30.00
2022-10-06T13:30:36.275Z,30.30
2022-10-06T13:35:33.834Z,30.70
2022-10-06T13:40:44.496Z,31.00
2022-10-06T13:45:44.774Z,31.10
2022-10-06T13:50:46.189Z,31.30
2022-10-06T13:55:39.992Z,31.70
2022-10-06T14:00:34.886Z,32.00
2022-10-06T14:05:36.693Z,31.90
2022-10-06T14:10:38.386Z,31.00
2022-10-06T14:15:38.006Z,30.50
2022-10-06T14:20:51.712Z,29.90
2022-10-06T14:25:50.930Z,29.80
2022-10-06T14:30:44.804Z,30.50
2022-10-06T14:35:38.837Z,30.50
2022-10-06T14:40:33.054Z,30.40
2022-10-06T14:45:28.703Z,30.10
2022-10-06T14:50:23.869Z,29.10
2022-10-06T14:55:17.549Z,28.40
2022-10-06T15:00:12.649Z,28.00
2022-10-06T15:05:08.482Z,27.50
2022-10-06T15:10:03.699Z,27.30
2022-10-06T15:14:57.910Z,27.70
2022-10-06T15:19:51.454Z,28.00
2022-10-06T15:24:50.500Z,26.80
2022-10-06T15:29:44.338Z,25.40
2022-10-06T15:34:38.289Z,24.50
2022-10-06T15:39:33.601Z,24.00
2022-10-06T15:44:34.358Z,23.50
2022-10-06T15:49:30.646Z,23.10
2022-10-06T15:54:25.989Z,22.70
2022-10-06T15:59:21.527Z,22.40
2022-10-06T16:04:25.973Z,22.10
2022-10-06T16:09:20.536Z,21.90
2022-10-06T16:14:15.037Z,21.70
2022-10-06T16:19:08.862Z,21.40
2022-10-06T16:24:05.398Z,21.10
2022-10-06T16:28:59.429Z,20.80
2022-10-06T16:33:53.303Z,20.60
2022-10-06T16:38:50.085Z,20.30
2022-10-06T16:43:46.805Z,20.00
2022-10-06T16:48:42.634Z,19.50
2022-10-06T16:53:38.808Z,19.30
2022-10-06T16:58:40.228Z,19.10
2022-10-06T17:03:35.892Z,18.70
2022-10-06T17:08:30.294Z,18.60
2022-10-06T17:13:23.961Z,18.40
2022-10-06T17:18:17.894Z,18.20
2022-10-06T17:23:14.933Z,18.10
2022-10-06T17:28:08.524Z,17.90
2022-10-06T17:33:02.323Z,17.80
2022-10-06T17:37:57.147Z,17.50
2022-10-06T17:42:52.158Z,17.20
2022-10-06T17:47:45.734Z,17.10
2022-10-06T17:52:39.678Z,17.00
2022-10-06T17:57:33.786Z,16.70
2022-10-06T18:02:28.867Z,16.70
2022-10-06T18:07:22.519Z,16.60
2022-10-06T18:12:17.121Z,16.60
2022-10-06T18:17:11.090Z,16.40
2022-10-06T18:22:10.332Z,16.30
2022-10-06T18:27:06.324Z,16.10
2022-10-06T18:33:31.054Z,16.00
2022-10-06T18:37:15.915Z,15.90
2022-10-06T18:42:11.479Z,15.80
2022-10-06T18:47:22.350Z,15.70
2022-10-06T18:52:17.747Z,15.40
2022-10-06T18:57:11.406Z,15.20
2022-10-06T19:02:06.539Z,15.20
2022-10-06T19:07:00.483Z,15.10
2022-10-06T19:12:05.318Z,15.00
2022-10-06T19:17:02.243Z,14.80
2022-10-06T19:21:59.570Z,14.60
